Time;durP1;ratioP1;P1;durP2;ratioP2;P2;SDS_P1;SDS_P2;PMS_P1;PMS_P2;Temp;Humidity;BMP_temperature;BMP_pressure;BME280_temperature;BME280_humidity;BME280_pressure;Samples;Min_cycle;Max_cycle;Signal;HPM_P1;HPM_P2
2021/04/17 00:02:00;;;;;;;26.15;20.65;;;;;;;8.50;91.75;100194.34;1706592;83;21222;-82
2021/04/17 00:04:27;;;;;;;26.57;21.23;;;;;;;8.40;92.43;100194.80;1697438;83;27068;-82
2021/04/17 00:06:53;;;;;;;26.33;20.15;;;;;;;8.35;92.72;100192.59;1698269;83;21198;-81
2021/04/17 00:09:21;;;;;;;27.98;20.90;;;;;;;8.27;92.83;100193.29;1697488;83;28498;-85
2021/04/17 00:11:47;;;;;;;26.20;21.02;;;;;;;8.37;92.58;100193.77;1697513;83;21162;-89
2021/04/17 00:14:22;;;;;;;27.25;20.60;;;;;;;8.39;92.30;100182.60;1702687;83;21244;-85
2021/04/17 00:16:48;;;;;;;31.07;23.00;;;;;;;8.25;92.92;100179.45;1692348;83;21197;-83
2021/04/17 00:19:14;;;;;;;26.90;20.65;;;;;;;8.30;93.01;100185.61;1697791;83;25806;-81
2021/04/17 00:21:40;;;;;;;31.48;23.50;;;;;;;8.26;92.92;100194.28;1700048;83;29001;-83
2021/04/17 00:24:06;;;;;;;32.03;23.30;;;;;;;8.31;92.80;100190.38;1697452;83;26765;-84
2021/04/17 00:26:34;;;;;;;28.05;21.85;;;;;;;8.15;93.35;100177.80;1702814;83;21188;-81
2021/04/17 00:29:02;;;;;;;27.07;21.00;;;;;;;8.17;93.78;100187.22;1701136;83;21190;-88
2021/04/17 00:31:29;;;;;;;;;;;;;;;8.18;93.40;100180.98;1699348;83;21289;-84
2021/04/17 00:33:57;;;;;;;27.98;21.42;;;;;;;8.16;93.42;100186.88;1706677;83;20290;-89
2021/04/17 00:36:24;;;;;;;;;;;;;;;8.15;93.46;100193.09;1706281;83;21264;-84
2021/04/17 00:38:52;;;;;;;29.77;21.52;;;;;;;8.09;93.69;100187.07;1697685;83;21196;-81
2021/04/17 00:41:18;;;;;;;;;;;;;;;8.04;93.82;100205.08;1700650;83;21225;-87
2021/04/17 00:43:46;;;;;;;28.73;21.85;;;;;;;8.12;93.44;100201.26;1697266;83;25389;-91
2021/04/17 00:46:12;;;;;;;34.67;23.45;;;;;;;8.15;93.33;100197.53;1703017;83;21648;-79
2021/04/17 00:48:43;;;;;;;30.95;23.40;;;;;;;8.15;93.24;100183.06;1700309;83;21612;-80
2021/04/17 00:51:10;;;;;;;31.07;24.10;;;;;;;8.11;93.59;100186.47;1702282;83;21226;-80
2021/04/17 00:53:37;;;;;;;30.32;22.70;;;;;;;8.17;93.11;100178.02;1700836;83;21163;-77
2021/04/17 00:56:05;;;;;;;32.08;23.50;;;;;;;8.25;92.66;100187.34;1699414;83;21191;-79
2021/04/17 00:58:31;;;;;;;30.52;22.02;;;;;;;8.29;92.30;100182.63;1701212;83;21206;-82
2021/04/17 01:00:57;;;;;;;30.62;24.32;;;;;;;8.15;92.55;100183.88;1700533;83;27232;-77
2021/04/17 01:03:43;;;;;;;29.60;22.00;;;;;;;8.15;92.94;100181.25;1699242;83;22028;-78
2021/04/17 01:06:19;;;;;;;33.48;22.77;;;;;;;8.17;92.67;100185.06;1697825;83;21222;-78
2021/04/17 01:08:52;;;;;;;31.30;21.60;;;;;;;8.22;92.85;100177.11;1698974;83;21142;-80
2021/04/17 01:11:43;;;;;;;29.95;21.57;;;;;;;8.24;92.29;100183.05;1688440;82;21221;-80
2021/04/17 01:14:10;;;;;;;29.72;21.23;;;;;;;8.22;92.15;100186.31;1688216;82;21226;-77
2021/04/17 01:16:36;;;;;;;26.87;20.60;;;;;;;8.21;91.99;100182.02;1688180;84;21834;-79
2021/04/17 01:19:09;;;;;;;30.30;20.35;;;;;;;8.17;91.92;100183.28;1662722;84;27733;-79
2021/04/17 01:21:34;;;;;;;28.32;19.92;;;;;;;8.06;92.52;100184.72;1685140;84;21195;-79
2021/04/17 01:24:04;;;;;;;30.05;20.08;;;;;;;8.06;92.52;100189.98;1659958;84;28382;-82
2021/04/17 01:26:30;;;;;;;29.92;19.95;;;;;;;7.98;92.64;100183.27;1696484;84;21250;-80
2021/04/17 01:28:57;;;;;;;28.55;19.48;;;;;;;8.03;92.63;100190.25;1690544;84;22056;-80
2021/04/17 01:31:30;;;;;;;30.45;20.37;;;;;;;8.03;92.20;100187.62;1688059;84;21565;-81
2021/04/17 01:34:01;;;;;;;27.80;20.00;;;;;;;7.99;92.43;100186.27;1685534;84;21195;-80
2021/04/17 01:36:28;;;;;;;26.70;20.10;;;;;;;8.02;92.42;100185.98;1689257;84;21173;-81
2021/04/17 01:39:09;;;;;;;28.45;18.40;;;;;;;7.97;92.52;100183.77;1665246;84;21203;-80
2021/04/17 01:41:39;;;;;;;30.23;19.48;;;;;;;7.94;92.46;100180.56;1690217;84;21291;-80
2021/04/17 01:44:28;;;;;;;26.07;18.23;;;;;;;8.09;92.01;100185.29;1665295;84;21227;-79
2021/04/17 01:47:13;;;;;;;28.65;18.07;;;;;;;8.20;91.38;100180.38;1696014;82;21076;-82
2021/04/17 01:49:42;;;;;;;25.02;16.37;;;;;;;8.01;91.42;100189.08;1687644;82;21223;-80
2021/04/17 01:52:13;;;;;;;26.42;18.30;;;;;;;7.95;91.70;100192.75;1688406;84;21159;-85
2021/04/17 01:54:45;;;;;;;27.15;17.70;;;;;;;8.06;91.36;100193.45;1687054;84;21210;-80
2021/04/17 01:57:15;;;;;;;29.75;18.75;;;;;;;7.95;91.86;100193.58;1688367;84;21143;-88
2021/04/17 01:59:41;;;;;;;28.77;18.07;;;;;;;7.91;91.90;100193.03;1683654;84;21171;-79
2021/04/17 02:02:07;;;;;;;27.77;18.87;;;;;;;7.95;91.54;100203.27;1681972;84;28469;-83
2021/04/17 02:04:34;;;;;;;28.15;18.82;;;;;;;7.93;91.96;100194.70;1686594;84;26684;-80
2021/04/17 02:07:00;;;;;;;26.95;17.80;;;;;;;7.91;91.89;100193.03;1687906;84;27404;-79
2021/04/17 02:09:26;;;;;;;27.95;18.90;;;;;;;7.81;92.42;100193.98;1662648;84;27011;-79
2021/04/17 02:11:52;;;;;;;28.40;18.67;;;;;;;7.87;92.07;100199.52;1683687;84;25322;-79
2021/04/17 02:14:17;;;;;;;28.23;18.95;;;;;;;7.95;91.92;100196.70;1687800;82;28444;-78
2021/04/17 02:16:50;;;;;;;28.92;18.65;;;;;;;7.85;92.05;100196.20;1674068;83;26802;-78
2021/04/17 02:19:22;;;;;;;29.50;19.27;;;;;;;7.93;91.82;100195.52;1686798;84;21250;-90
2021/04/17 02:21:48;;;;;;;28.52;19.75;;;;;;;7.81;92.37;100190.87;1681198;84;21251;-79
2021/04/17 02:24:16;;;;;;;31.50;22.07;;;;;;;7.85;92.36;100193.58;1691815;84;21179;-84
2021/04/17 02:26:42;;;;;;;30.27;20.95;;;;;;;7.81;92.47;100196.13;1659658;84;21648;-80
2021/04/17 02:29:09;;;;;;;30.43;21.80;;;;;;;7.77;92.57;100198.70;1650914;84;26681;-80
2021/04/17 02:31:36;;;;;;;30.95;20.92;;;;;;;7.78;92.75;100193.77;1691438;84;21174;-82
2021/04/17 02:34:02;;;;;;;29.25;20.17;;;;;;;7.73;92.68;100193.36;1682845;84;21193;-80
2021/04/17 02:36:28;;;;;;;30.65;21.45;;;;;;;7.86;92.14;100191.31;1688612;84;25349;-81
2021/04/17 02:38:53;;;;;;;29.20;20.97;;;;;;;7.75;92.91;100195.85;1683158;84;28409;-84
2021/04/17 02:41:24;;;;;;;28.42;20.95;;;;;;;7.78;92.75;100197.71;1694022;84;27545;-81
2021/04/17 02:43:50;;;;;;;31.02;21.07;;;;;;;7.79;92.60;100194.13;1686323;84;21254;-81
2021/04/17 02:46:16;;;;;;;31.35;20.40;;;;;;;7.79;92.50;100191.50;1663226;84;21610;-80
2021/04/17 02:48:43;;;;;;;30.35;21.20;;;;;;;7.73;92.91;100190.73;1686625;84;25333;-82
2021/04/17 02:51:11;;;;;;;30.40;21.02;;;;;;;7.73;93.13;100190.73;1686256;84;21242;-83
2021/04/17 02:53:36;;;;;;;25.90;19.77;;;;;;;7.79;92.63;100195.44;1694444;84;21214;-81
2021/04/17 02:56:03;;;;;;;30.43;20.50;;;;;;;7.84;92.37;100191.91;1661207;84;22068;-81
2021/04/17 02:58:30;;;;;;;29.75;20.75;;;;;;;7.82;92.82;100194.34;1691904;84;21167;-82
2021/04/17 03:00:56;;;;;;;28.62;20.17;;;;;;;7.88;92.36;100193.30;1665126;84;21588;-82
2021/04/17 03:03:23;;;;;;;25.85;19.07;;;;;;;8.01;91.92;100186.94;1684419;84;28918;-82
2021/04/17 03:05:49;;;;;;;27.17;20.30;;;;;;;7.97;91.90;100190.34;1690129;84;26812;-82
2021/04/17 03:08:17;;;;;;;26.70;19.90;;;;;;;8.12;91.67;100196.00;1693995;84;22045;-79
2021/04/17 03:10:45;;;;;;;27.82;19.92;;;;;;;7.96;91.87;100196.56;1690736;83;21166;-78
2021/04/17 03:13:11;;;;;;;29.07;20.25;;;;;;;8.05;91.74;100194.91;1696027;84;26790;-77
2021/04/17 03:15:37;;;;;;;31.00;20.35;;;;;;;8.06;91.27;100198.72;1690795;84;28391;-77
2021/04/17 03:18:04;;;;;;;26.65;19.35;;;;;;;7.88;92.11;100193.30;1640747;84;27488;-84
2021/04/17 03:20:30;;;;;;;;;;;;;;;7.88;91.85;100194.62;1687094;84;21229;-84
2021/04/17 03:22:56;;;;;;;25.80;18.23;;;;;;;7.98;91.66;100191.98;1687168;84;27502;-83
2021/04/17 03:25:25;;;;;;;27.02;20.23;;;;;;;7.94;91.80;100194.56;1687283;84;25868;-83
2021/04/17 03:27:51;;;;;;;29.65;20.02;;;;;;;7.99;91.93;100196.78;1662257;82;21162;-82
2021/04/17 03:30:18;;;;;;;29.55;19.98;;;;;;;8.00;91.85;100199.73;1690886;82;26779;-81
2021/04/17 03:32:44;;;;;;;32.95;20.68;;;;;;;7.90;92.23;100201.05;1688759;84;21226;-80
2021/04/17 03:35:13;;;;;;;29.90;20.40;;;;;;;7.94;92.01;100198.51;1686630;84;21162;-81
2021/04/17 03:37:39;;;;;;;28.15;20.12;;;;;;;8.02;91.67;100197.82;1684402;84;21183;-81
2021/04/17 03:40:07;;;;;;;27.77;19.42;;;;;;;7.98;91.65;100200.37;1686502;84;21218;-88
2021/04/17 03:42:34;;;;;;;32.78;19.60;;;;;;;7.78;92.43;100210.86;1689530;84;21202;-80
2021/04/17 03:45:00;;;;;;;;;;;;;;;8.02;91.87;100213.59;1693123;84;22134;-83
2021/04/17 03:47:26;;;;;;;31.82;19.62;;;;;;;7.87;92.22;100216.61;1691807;84;20262;-88
2021/04/17 03:49:53;;;;;;;31.37;20.02;;;;;;;7.97;92.22;100214.02;1693386;82;21182;-89
2021/04/17 03:52:24;;;;;;;30.15;20.62;;;;;;;7.86;92.35;100212.80;1696178;82;21652;-81
2021/04/17 03:54:51;;;;;;;30.85;20.08;;;;;;;7.91;92.79;100212.75;1681421;83;21147;-84
2021/04/17 03:57:18;;;;;;;28.70;20.50;;;;;;;7.96;92.41;100215.46;1695316;82;21577;-89
2021/04/17 03:59:46;;;;;;;32.67;21.60;;;;;;;8.08;92.23;100219.13;1692500;84;21155;-85
2021/04/17 04:02:12;;;;;;;32.03;20.92;;;;;;;8.08;92.15;100216.98;1683320;84;21083;-85
2021/04/17 04:04:38;;;;;;;32.67;20.95;;;;;;;8.20;91.71;100215.88;1686568;84;21207;-79
2021/04/17 04:07:05;;;;;;;33.60;20.90;;;;;;;8.19;91.82;100216.02;1682345;84;26694;-79
2021/04/17 04:09:31;;;;;;;33.90;21.00;;;;;;;8.13;91.72;100220.02;1682930;83;21234;-79
2021/04/17 04:11:57;;;;;;;32.13;21.15;;;;;;;8.16;91.92;100216.30;1667219;83;21223;-80
2021/04/17 04:14:24;;;;;;;32.55;20.95;;;;;;;8.27;91.54;100217.46;1665023;86;21165;-79
2021/04/17 04:16:50;;;;;;;31.80;19.82;;;;;;;8.30;91.49;100212.39;1662983;84;21232;-79
2021/04/17 04:19:16;;;;;;;34.43;21.40;;;;;;;8.37;91.52;100222.21;1647779;84;26836;-81
2021/04/17 04:21:42;;;;;;;37.20;22.07;;;;;;;8.36;91.60;100223.67;1666172;84;21791;-78
2021/04/17 04:24:11;;;;;;;37.08;21.73;;;;;;;8.30;91.65;100212.39;1663213;85;21202;-79
2021/04/17 04:26:39;;;;;;;33.08;21.30;;;;;;;8.28;91.61;100228.31;1664730;84;21612;-81
2021/04/17 04:29:13;;;;;;;35.63;21.82;;;;;;;8.47;91.40;100224.03;1656454;85;21213;-87
2021/04/17 04:31:39;;;;;;;32.78;21.95;;;;;;;8.47;91.28;100227.52;1664292;86;21246;-86
2021/04/17 04:34:05;;;;;;;32.30;21.85;;;;;;;8.44;91.06;100229.94;1663937;86;21919;-86
2021/04/17 04:36:32;;;;;;;37.40;20.88;;;;;;;8.43;91.08;100230.05;1661792;86;27157;-86
2021/04/17 04:38:59;;;;;;;;;;;;;;;8.54;90.70;100225.97;1662807;84;21236;-87
2021/04/17 04:41:31;;;;;;;36.08;21.85;;;;;;;8.63;90.42;100235.65;1662047;86;20582;-87
2021/04/17 04:43:58;;;;;;;40.73;22.52;;;;;;;8.63;90.36;100233.02;1665955;85;22217;-87
2021/04/17 04:46:30;;;;;;;40.90;23.40;;;;;;;8.62;90.41;100236.64;1662611;85;21407;-87
2021/04/17 04:48:56;;;;;;;35.85;23.85;;;;;;;8.75;90.14;100246.04;1662925;84;21228;-86
2021/04/17 04:51:23;;;;;;;41.40;23.15;;;;;;;8.71;90.10;100244.16;1662517;84;25346;-86
2021/04/17 04:53:51;;;;;;;39.42;23.27;;;;;;;8.76;89.99;100245.05;1662232;84;21683;-86
2021/04/17 04:56:17;;;;;;;39.35;23.20;;;;;;;8.65;90.01;100247.84;1664929;85;21198;-86
2021/04/17 04:58:42;;;;;;;41.65;23.60;;;;;;;8.73;89.97;100250.59;1663500;84;21976;-86
2021/04/17 05:01:08;;;;;;;37.67;23.57;;;;;;;8.68;90.14;100248.39;1660945;84;28081;-86
2021/04/17 05:03:38;;;;;;;44.27;25.40;;;;;;;8.74;89.81;100252.27;1644111;85;21655;-86
2021/04/17 05:06:06;;;;;;;47.60;25.08;;;;;;;8.71;89.88;100257.81;1655263;84;21231;-86
2021/04/17 05:08:32;;;;;;;47.05;25.30;;;;;;;8.78;89.61;100247.89;1640241;85;21190;-86
2021/04/17 05:11:01;;;;;;;50.73;27.73;;;;;;;8.85;89.62;100253.91;1647226;84;21482;-86
2021/04/17 05:13:29;;;;;;;49.93;26.77;;;;;;;8.89;89.68;100252.66;1646543;85;21306;-86
2021/04/17 05:15:57;;;;;;;;;;;;;;;8.95;89.44;100255.55;1666594;85;21174;-86
2021/04/17 05:18:25;;;;;;;49.40;27.17;;;;;;;8.96;89.44;100258.53;1639269;84;20562;-86
2021/04/17 05:20:53;;;;;;;;;;;;;;;8.98;89.59;100257.89;1666062;84;21196;-87
2021/04/17 05:23:21;;;;;;;52.73;27.42;;;;;;;9.06;89.34;100268.18;1667548;83;21713;-87
2021/04/17 05:25:49;;;;;;;50.38;28.57;;;;;;;9.07;89.33;100267.22;1665575;84;21200;-86
2021/04/17 05:28:15;;;;;;;48.75;26.82;;;;;;;9.11;89.27;100270.73;1665474;84;25611;-86
2021/04/17 05:30:44;;;;;;;47.90;25.97;;;;;;;9.01;89.54;100262.52;1656893;84;28605;-87
2021/04/17 05:33:09;;;;;;;48.15;25.95;;;;;;;9.09;89.58;100267.89;1669452;84;21164;-85
2021/04/17 05:35:38;;;;;;;50.03;23.95;;;;;;;9.11;89.48;100266.78;1663273;84;22386;-85
2021/04/17 05:38:06;;;;;;;46.00;24.05;;;;;;;9.06;89.56;100265.55;1659365;84;21210;-86
2021/04/17 05:40:31;;;;;;;;;;;;;;;8.84;90.48;100268.03;1667871;83;21275;-87
2021/04/17 05:42:59;;;;;;;41.35;22.98;;;;;;;8.82;91.15;100265.55;1664207;83;20731;-86
2021/04/17 05:45:29;;;;;;;38.88;23.65;;;;;;;8.94;91.34;100264.91;1642708;84;21134;-86
2021/04/17 05:47:55;;;;;;;43.75;22.87;;;;;;;9.06;90.72;100265.55;1657126;84;21908;-87
2021/04/17 05:50:21;;;;;;;44.08;23.35;;;;;;;9.21;90.24;100270.70;1661528;83;27574;-87
2021/04/17 05:52:49;;;;;;;42.65;22.77;;;;;;;9.19;89.96;100271.34;1661603;84;21210;-87
2021/04/17 05:55:16;;;;;;;;;;;;;;;9.38;89.57;100268.28;1666426;84;21168;-87
2021/04/17 05:57:44;;;;;;;41.37;22.65;;;;;;;9.37;89.20;100258.70;1664573;83;20246;-86
2021/04/17 06:00:14;;;;;;;36.63;23.07;;;;;;;9.36;89.39;100271.56;1650390;84;21974;-86
2021/04/17 06:02:42;;;;;;;43.42;22.30;;;;;;;9.41;89.49;100264.05;1661751;83;21298;-87
2021/04/17 06:05:11;;;;;;;42.48;21.10;;;;;;;9.44;88.98;100268.52;1663451;84;21645;-86
2021/04/17 06:07:39;;;;;;;37.80;20.92;;;;;;;9.44;89.03;100271.66;1660205;84;21210;-86
2021/04/17 06:10:10;;;;;;;43.15;23.25;;;;;;;9.37;88.95;100275.84;1667697;83;22161;-87
2021/04/17 06:12:35;;;;;;;37.60;20.85;;;;;;;9.32;89.88;100278.44;1676010;83;21215;-87
2021/04/17 06:15:02;;;;;;;44.33;22.37;;;;;;;9.46;89.31;100273.66;1674792;84;21671;-87
2021/04/17 06:17:29;;;;;;;42.03;22.60;;;;;;;9.44;89.55;100275.61;1672579;84;21218;-87
2021/04/17 06:19:55;;;;;;;;;;;;;;;9.47;89.58;100276.64;1678464;83;21160;-86
2021/04/17 06:22:23;;;;;;;39.80;22.73;;;;;;;9.45;89.64;100278.60;1676361;83;20220;-87
2021/04/17 06:24:49;;;;;;;43.75;23.15;;;;;;;9.52;89.60;100279.19;1674535;83;21249;-86
2021/04/17 06:27:17;;;;;;;46.35;22.67;;;;;;;9.52;89.87;100277.87;1671563;85;27065;-86
2021/04/17 06:29:46;;;;;;;;;;;;;;;9.61;89.10;100284.55;1678758;83;21214;-85
2021/04/17 06:32:13;;;;;;;45.58;23.30;;;;;;;9.57;89.84;100281.39;1673134;83;20282;-87
2021/04/17 06:34:41;;;;;;;46.10;23.92;;;;;;;9.68;89.66;100285.14;1675924;85;21211;-86
2021/04/17 06:37:08;;;;;;;;;;;;;;;9.78;89.31;100289.03;1672051;84;22186;-86
2021/04/17 06:39:37;;;;;;;46.58;24.57;;;;;;;9.85;89.23;100283.98;1675079;85;20297;-85
2021/04/17 06:42:14;;;;;;;47.78;23.65;;;;;;;9.87;88.98;100287.33;1674733;84;21705;-88
2021/04/17 06:44:44;;;;;;;49.98;25.17;;;;;;;9.88;88.87;100291.61;1671495;84;22523;-86
2021/04/17 06:47:15;;;;;;;50.63;26.40;;;;;;;9.82;89.02;100282.50;1673216;85;21241;-85
2021/04/17 06:49:47;;;;;;;51.15;26.42;;;;;;;10.00;88.89;100295.70;1673267;84;21695;-86
2021/04/17 06:52:15;;;;;;;47.30;24.30;;;;;;;10.05;88.81;100300.53;1668611;83;21215;-86
2021/04/17 06:54:44;;;;;;;50.38;24.20;;;;;;;10.05;88.87;100301.37;1672870;84;21238;-86
2021/04/17 06:57:10;;;;;;;54.08;26.37;;;;;;;10.00;89.19;100305.43;1653432;85;21232;-85
2021/04/17 06:59:37;;;;;;;45.10;24.67;;;;;;;10.01;89.65;100302.64;1649023;85;20956;-86
2021/04/17 07:02:03;;;;;;;;;;;;;;;10.19;89.27;100305.78;1668545;85;21202;-86
2021/04/17 07:04:30;;;;;;;53.95;23.85;;;;;;;10.02;89.93;100305.63;1652914;85;20250;-86
2021/04/17 07:06:56;;;;;;;49.15;25.82;;;;;;;10.02;90.29;100304.31;1676510;85;21213;-85
2021/04/17 07:09:24;;;;;;;55.70;24.85;;;;;;;10.10;89.90;100307.99;1674166;84;21203;-86
2021/04/17 07:11:51;;;;;;;48.55;24.67;;;;;;;10.11;89.81;100310.98;1671378;84;21251;-84
2021/04/17 07:14:20;;;;;;;47.03;23.22;;;;;;;10.17;89.79;100311.70;1659524;85;21354;-85
2021/04/17 07:17:04;;;;;;;49.80;24.65;;;;;;;10.17;89.52;100309.89;1662805;85;21223;-85
2021/04/17 07:19:55;;;;;;;41.92;22.98;;;;;;;10.20;89.48;100306.13;1641239;85;21269;-86
2021/04/17 07:22:35;;;;;;;38.92;21.77;;;;;;;10.28;89.38;100307.52;1671247;85;21192;-85
2021/04/17 07:25:13;;;;;;;38.95;21.95;;;;;;;10.40;88.99;100315.59;1660091;84;21136;-85
2021/04/17 07:27:49;;;;;;;42.03;22.22;;;;;;;10.53;88.70;100317.02;1651764;84;21191;-87
2021/04/17 07:30:31;;;;;;;43.58;23.80;;;;;;;10.52;88.35;100312.24;1660061;85;21313;-87
2021/04/17 07:33:09;;;;;;;42.10;23.60;;;;;;;10.33;88.76;100313.23;1661662;84;21195;-85
2021/04/17 07:35:41;;;;;;;39.55;21.77;;;;;;;10.40;88.73;100320.88;1656117;85;22322;-86
2021/04/17 07:38:17;;;;;;;38.83;21.75;;;;;;;10.43;88.58;100320.25;1658355;85;21571;-86
2021/04/17 07:41:15;;;;;;;35.83;21.48;;;;;;;10.45;88.05;100322.23;1661542;85;21474;-86
2021/04/17 07:44:01;;;;;;;36.38;20.95;;;;;;;10.45;88.56;100322.23;1664286;85;21714;-86
2021/04/17 07:46:43;;;;;;;36.98;21.62;;;;;;;10.50;88.08;100313.36;1663080;84;21200;-87
2021/04/17 07:49:18;;;;;;;34.65;21.25;;;;;;;10.50;88.08;100313.36;1671831;84;21269;-84
2021/04/17 07:52:11;;;;;;;38.58;22.27;;;;;;;10.55;87.53;100326.93;1657784;85;21187;-86
2021/04/17 07:54:55;;;;;;;38.30;22.00;;;;;;;10.53;87.59;100331.08;1658028;85;21427;-88
2021/04/17 07:57:24;;;;;;;44.45;24.57;;;;;;;10.61;87.76;100328.97;1649896;84;21673;-87
2021/04/17 07:59:54;;;;;;;44.13;24.40;;;;;;;10.57;87.81;100340.33;1622562;85;21654;-87
2021/04/17 08:02:28;;;;;;;43.85;25.00;;;;;;;10.65;87.73;100333.47;1655036;84;21251;-86
2021/04/17 08:04:55;;;;;;;48.10;23.92;;;;;;;10.48;87.95;100337.78;1665665;84;21674;-86
2021/04/17 08:07:24;;;;;;;40.88;23.98;;;;;;;10.48;88.16;100338.59;1658309;84;21447;-86
2021/04/17 08:09:54;;;;;;;45.23;25.02;;;;;;;10.39;88.49;100339.50;1664387;84;21232;-82
2021/04/17 08:12:22;;;;;;;47.55;24.15;;;;;;;10.38;88.60;100336.54;1642495;85;21094;-85
2021/04/17 08:14:53;;;;;;;43.65;23.80;;;;;;;10.26;89.88;100341.16;1633609;85;39993;-85
2021/04/17 08:17:26;;;;;;;42.80;24.30;;;;;;;10.25;89.88;100344.77;1666700;85;21225;-85
2021/04/17 08:19:58;;;;;;;43.08;24.85;;;;;;;10.36;89.20;100345.93;1664796;85;21089;-86
2021/04/17 08:22:32;;;;;;;43.23;24.63;;;;;;;10.41;89.19;100348.94;1664934;83;21258;-85
2021/04/17 08:25:00;;;;;;;46.83;26.37;;;;;;;10.52;88.61;100350.53;1671258;83;21360;-86
2021/04/17 08:27:34;;;;;;;48.15;25.97;;;;;;;10.49;88.58;100352.15;1669655;83;21635;-85
2021/04/17 08:30:06;;;;;;;47.10;26.10;;;;;;;10.55;88.62;100348.05;1672395;83;21189;-85
2021/04/17 08:32:48;;;;;;;49.65;27.98;;;;;;;10.64;88.25;100349.79;1667871;83;21223;-86
2021/04/17 08:35:17;;;;;;;49.42;26.93;;;;;;;10.68;87.77;100349.02;1663443;83;21731;-86
2021/04/17 08:37:57;;;;;;;48.00;26.97;;;;;;;10.66;87.87;100349.17;1666770;85;21243;-87
2021/04/17 08:40:45;;;;;;;52.75;28.47;;;;;;;10.85;87.69;100348.66;1664581;84;21238;-88
2021/04/17 08:43:19;;;;;;;50.90;29.12;;;;;;;10.75;87.84;100355.33;1669805;84;21732;-86
2021/04/17 08:46:10;;;;;;;47.67;26.90;;;;;;;10.69;87.89;100350.66;1667265;83;21182;-85
2021/04/17 08:48:58;;;;;;;42.95;25.43;;;;;;;10.66;88.37;100357.09;1665065;83;21199;-81
2021/04/17 08:51:27;;;;;;;39.73;24.50;;;;;;;10.60;87.65;100356.38;1666978;84;21214;-82
2021/04/17 08:54:10;;;;;;;43.15;25.77;;;;;;;10.58;88.17;100362.28;1668027;85;21608;-89
2021/04/17 08:57:00;;;;;;;46.63;27.17;;;;;;;10.70;88.16;100357.11;1659171;83;21215;-87
2021/04/17 08:59:33;;;;;;;45.08;26.07;;;;;;;10.82;87.65;100347.65;1664583;85;21258;-86
2021/04/17 09:02:04;;;;;;;45.63;26.95;;;;;;;10.95;87.33;100353.34;1669128;84;21256;-86
2021/04/17 09:04:31;;;;;;;41.85;25.23;;;;;;;10.96;87.22;100353.70;1667939;84;21953;-84
2021/04/17 09:07:01;;;;;;;50.73;27.13;;;;;;;10.96;86.81;100353.70;1664723;83;21221;-88
2021/04/17 09:09:29;;;;;;;44.13;26.90;;;;;;;10.90;86.82;100358.27;1668795;83;21953;-88
2021/04/17 09:12:11;;;;;;;43.23;26.70;;;;;;;11.02;86.68;100357.05;1673601;83;21361;-85
2021/04/17 09:14:56;;;;;;;44.95;26.85;;;;;;;11.08;86.53;100355.11;1674892;85;21763;-88
2021/04/17 09:17:35;;;;;;;44.53;26.33;;;;;;;11.07;86.69;100353.44;1672243;84;21190;-87
2021/04/17 09:20:04;;;;;;;42.05;25.30;;;;;;;11.06;86.65;100356.23;1673371;85;21209;-89
2021/04/17 09:22:36;;;;;;;43.63;26.27;;;;;;;11.19;86.34;100358.50;1678118;83;21296;-88
2021/04/17 09:25:12;;;;;;;49.53;27.40;;;;;;;11.31;86.06;100356.75;1679182;84;21545;-90
2021/04/17 09:27:42;;;;;;;47.33;27.43;;;;;;;11.32;86.23;100352.28;1678219;84;21242;-90
2021/04/17 09:30:18;;;;;;;44.75;26.55;;;;;;;11.25;86.21;100352.09;1672741;85;21668;-89
2021/04/17 09:32:48;;;;;;;42.53;25.00;;;;;;;11.09;86.54;100357.25;1672359;85;21206;-88
2021/04/17 09:35:32;;;;;;;46.92;26.55;;;;;;;11.03;87.07;100356.08;1674542;85;21223;-89
2021/04/17 09:38:10;;;;;;;47.67;28.07;;;;;;;11.08;87.77;100363.03;1650128;85;21436;-90
2021/04/17 09:40:52;;;;;;;43.80;26.87;;;;;;;11.20;87.31;100364.95;1673334;83;21255;-90
2021/04/17 09:43:35;;;;;;;42.95;26.15;;;;;;;11.29;86.51;100367.14;1674634;83;21603;-87
2021/04/17 09:46:07;;;;;;;41.28;25.35;;;;;;;11.25;86.97;100365.30;1674121;83;21187;-87
2021/04/17 09:48:41;;;;;;;38.42;23.90;;;;;;;11.36;86.31;100376.11;1677431;84;21284;-88
2021/04/17 09:51:29;;;;;;;36.65;22.15;;;;;;;11.32;86.50;100378.72;1674589;85;21372;-87
2021/04/17 09:54:06;;;;;;;35.13;22.62;;;;;;;11.38;86.26;100379.42;1675225;85;21671;-87
2021/04/17 09:56:41;;;;;;;38.08;23.60;;;;;;;11.44;85.70;100376.66;1671229;84;21243;-88
2021/04/17 09:59:15;;;;;;;34.08;21.57;;;;;;;11.53;85.85;100380.16;1677814;84;21746;-88
2021/04/17 10:01:57;;;;;;;38.60;23.27;;;;;;;11.61;85.55;100377.08;1670552;84;21673;-88
2021/04/17 10:04:26;;;;;;;35.10;22.05;;;;;;;11.62;85.74;100373.93;1671292;83;21991;-88
2021/04/17 10:06:58;;;;;;;35.05;21.93;;;;;;;11.66;85.11;100376.61;1649002;85;21654;-90
2021/04/17 10:09:27;;;;;;;38.02;22.93;;;;;;;11.75;84.85;100374.34;1673501;84;21170;-86
2021/04/17 10:12:06;;;;;;;37.23;23.12;;;;;;;11.83;84.75;100380.98;1667958;84;21203;-87
2021/04/17 10:14:36;;;;;;;39.33;24.70;;;;;;;11.88;84.56;100381.02;1678817;83;21185;-89
2021/04/17 10:17:02;;;;;;;36.55;23.67;;;;;;;11.85;84.68;100377.70;1681449;83;22052;-89
2021/04/17 10:19:29;;;;;;;44.27;25.25;;;;;;;11.93;84.81;100381.38;1678302;85;21060;-88
2021/04/17 10:21:59;;;;;;;42.40;25.12;;;;;;;11.90;84.91;100377.23;1678659;84;21195;-90
2021/04/17 10:24:33;;;;;;;43.90;24.92;;;;;;;12.05;84.38;100369.52;1675995;83;21735;-90
2021/04/17 10:27:12;;;;;;;40.63;24.65;;;;;;;12.15;84.10;100379.49;1677638;85;21207;-89
2021/04/17 10:29:42;;;;;;;41.10;25.27;;;;;;;12.12;83.98;100373.20;1682523;83;21228;-87
2021/04/17 10:32:16;;;;;;;42.58;25.68;;;;;;;11.96;84.45;100381.06;1681384;83;21536;-85
2021/04/17 10:34:44;;;;;;;45.23;26.77;;;;;;;12.06;84.23;100386.22;1637870;85;21242;-85
2021/04/17 10:37:23;;;;;;;48.85;27.82;;;;;;;12.02;85.18;100385.72;1683646;83;21256;-86
2021/04/17 10:40:09;;;;;;;44.30;25.62;;;;;;;12.03;85.12;100382.09;1679816;83;21236;-84
2021/04/17 10:42:57;;;;;;;42.58;25.30;;;;;;;11.86;85.28;100390.43;1655112;84;21290;-85
2021/04/17 10:45:27;;;;;;;41.45;24.60;;;;;;;11.92;85.06;100392.95;1674266;85;21217;-88
2021/04/17 10:48:20;;;;;;;43.15;24.32;;;;;;;12.06;84.98;100389.72;1678814;85;21236;-87
2021/04/17 10:51:07;;;;;;;40.20;23.80;;;;;;;12.02;84.72;100393.66;1680620;83;21216;-87
2021/04/17 10:53:37;;;;;;;39.90;23.83;;;;;;;12.11;84.33;100391.89;1671503;84;21220;-86
2021/04/17 10:56:17;;;;;;;42.30;25.12;;;;;;;12.09;84.22;100390.72;1680547;83;21239;-87
2021/04/17 10:58:46;;;;;;;39.58;25.08;;;;;;;12.12;84.12;100390.41;1659324;85;21185;-87
2021/04/17 11:01:14;;;;;;;43.50;26.73;;;;;;;12.12;83.78;100390.88;1679982;85;21596;-82
2021/04/17 11:03:45;;;;;;;;;;;;;;;12.17;83.93;100392.06;1684908;83;21150;-89
2021/04/17 11:06:25;;;;;;;39.03;24.37;;;;;;;12.38;83.39;100390.79;1687733;83;20244;-89
2021/04/17 11:09:12;;;;;;;38.20;23.83;;;;;;;12.39;83.40;100393.78;1682044;83;21060;-90
2021/04/17 11:11:57;;;;;;;40.12;25.32;;;;;;;12.44;82.80;100391.47;1671346;83;21181;-92
2021/04/17 11:14:27;;;;;;;39.40;24.50;;;;;;;12.48;83.04;100391.48;1672030;84;21596;-92
2021/04/17 11:16:55;;;;;;;42.70;25.65;;;;;;;12.64;82.62;100395.16;1671304;84;21198;-91
2021/04/17 11:19:37;;;;;;;40.33;23.98;;;;;;;12.65;82.28;100395.50;1667947;84;21233;-89
2021/04/17 11:22:15;;;;;;;36.15;22.95;;;;;;;12.72;82.16;100393.36;1667996;84;21186;-87
2021/04/17 11:25:03;;;;;;;41.45;25.57;;;;;;;12.70;81.99;100397.97;1667099;85;21058;-87
2021/04/17 11:27:33;;;;;;;40.23;23.92;;;;;;;12.70;82.50;100397.16;1666569;84;21195;-84
2021/04/17 11:30:01;;;;;;;38.78;23.75;;;;;;;12.63;82.18;100402.77;1670783;84;21225;-84
2021/04/17 11:32:26;;;;;;;39.13;24.02;;;;;;;12.55;82.45;100396.48;1670714;83;21224;-89
2021/04/17 11:34:52;;;;;;;43.35;25.60;;;;;;;12.75;82.12;100402.78;1669896;83;21267;-84
2021/04/17 11:37:23;;;;;;;37.85;23.47;;;;;;;12.62;82.72;100407.75;1664551;84;20958;-86